Time;durP1;ratioP1;P1;durP2;ratioP2;P2;SDS_P1;SDS_P2;PMS_P1;PMS_P2;Temp;Humidity;BMP_temperature;BMP_pressure;BME280_temperature;BME280_humidity;BME280_pressure;Samples;Min_cycle;Max_cycle;Signal;HPM_P1;HPM_P2
2022/12/09 00:01:39;;;;;;;4.50;0.93;;;18.90;99.90;;;;;;5100496;27;20201;-78
2022/12/09 00:04:10;;;;;;;5.57;2.28;;;19.00;99.90;;;;;;5105110;28;20194;-80
2022/12/09 00:06:43;;;;;;;3.80;0.90;;;19.40;99.90;;;;;;5115602;28;20270;-79
2022/12/09 00:09:16;;;;;;;2.78;1.13;;;19.60;99.90;;;;;;5115585;28;20234;-79
2022/12/09 00:11:47;;;;;;;3.83;0.95;;;20.10;99.90;;;;;;5109227;28;20635;-79
2022/12/09 00:14:18;;;;;;;3.92;0.90;;;20.00;99.90;;;;;;5110839;28;20206;-80
2022/12/09 00:16:49;;;;;;;5.00;0.93;;;20.40;99.90;;;;;;5096492;28;20198;-81
2022/12/09 00:19:19;;;;;;;2.13;0.80;;;20.80;99.90;;;;;;5095304;28;20188;-81
2022/12/09 00:21:52;;;;;;;5.07;0.70;;;21.00;99.90;;;;;;5095799;28;20191;-76
2022/12/09 00:24:23;;;;;;;5.20;1.10;;;20.90;99.90;;;;;;5093338;28;20631;-74
2022/12/09 00:26:54;;;;;;;4.30;0.75;;;20.70;99.90;;;;;;5106884;28;20213;-74
2022/12/09 00:29:24;;;;;;;3.22;0.73;;;20.30;99.90;;;;;;5099089;28;20226;-74
2022/12/09 00:31:55;;;;;;;4.50;1.10;;;19.80;99.90;;;;;;5105472;28;20305;-74
2022/12/09 00:34:26;;;;;;;8.68;1.23;;;19.70;99.90;;;;;;5094848;28;20354;-74
2022/12/09 00:36:59;;;;;;;3.47;0.90;;;19.90;99.90;;;;;;5099052;28;20275;-76
2022/12/09 00:39:30;;;;;;;2.55;0.70;;;20.40;99.90;;;;;;5091183;28;20210;-75
2022/12/09 00:42:00;;;;;;;1.60;0.77;;;20.60;99.90;;;;;;5086907;28;20279;-75
2022/12/09 00:44:34;;;;;;;3.83;0.68;;;20.90;99.90;;;;;;5087176;28;20200;-74
2022/12/09 00:47:05;;;;;;;2.67;0.70;;;21.10;99.90;;;;;;5101220;28;20199;-74
2022/12/09 00:49:36;;;;;;;3.50;0.90;;;21.20;99.90;;;;;;5092227;28;20210;-77
2022/12/09 00:52:09;;;;;;;5.68;0.70;;;20.90;99.90;;;;;;5095502;28;20188;-79
2022/12/09 00:54:39;;;;;;;2.63;0.70;;;21.30;99.90;;;;;;5093960;28;20219;-79
2022/12/09 00:57:10;;;;;;;3.97;0.80;;;21.40;99.90;;;;;;5089783;28;20598;-79
2022/12/09 00:59:41;;;;;;;2.63;0.70;;;21.30;99.90;;;;;;5104103;28;20286;-79
2022/12/09 01:02:12;;;;;;;7.53;0.90;;;21.10;99.90;;;;;;5092146;28;20655;-77
2022/12/09 01:04:43;;;;;;;2.67;0.65;;;21.00;99.90;;;;;;5091811;28;20200;-75
2022/12/09 01:07:15;;;;;;;3.25;0.73;;;21.20;99.90;;;;;;5090614;28;20276;-75
2022/12/09 01:09:46;;;;;;;3.67;0.70;;;21.10;99.90;;;;;;5105749;28;20262;-76
2022/12/09 01:12:17;;;;;;;2.05;0.68;;;21.20;99.90;;;;;;5104673;28;20227;-81
2022/12/09 01:14:49;;;;;;;2.65;0.68;;;21.30;99.90;;;;;;5097612;28;20278;-79
2022/12/09 01:17:20;;;;;;;3.15;0.80;;;21.50;99.90;;;;;;5094530;28;20325;-75
2022/12/09 01:19:51;;;;;;;2.50;0.82;;;21.70;99.90;;;;;;5092916;28;21956;-75
2022/12/09 01:22:24;;;;;;;5.43;0.85;;;21.70;99.90;;;;;;5096839;28;20192;-80
2022/12/09 01:24:55;;;;;;;7.28;0.77;;;21.80;99.90;;;;;;5100509;28;20204;-79
2022/12/09 01:27:26;;;;;;;2.13;0.60;;;21.90;99.90;;;;;;5106187;28;20544;-78
2022/12/09 01:29:56;;;;;;;4.20;0.80;;;21.80;99.90;;;;;;5103538;28;20196;-78
2022/12/09 01:32:27;;;;;;;2.78;1.20;;;21.60;99.90;;;;;;5091558;28;20214;-79
2022/12/09 01:37:32;;;;;;;4.78;0.80;;;21.80;99.90;;;;;;5097752;22;20313;-83
2022/12/09 01:40:03;;;;;;;3.17;1.00;;;21.90;99.90;;;;;;5091243;28;20200;-85
2022/12/09 01:42:36;;;;;;;2.97;0.80;;;21.90;99.90;;;;;;5092034;28;20677;-83
2022/12/09 01:45:43;;;;;;;5.20;0.70;;;21.80;99.90;;;;;;5085159;28;20667;-83
2022/12/09 01:48:15;;;;;;;3.97;0.63;;;22.00;99.90;;;;;;5029384;28;20658;-82
2022/12/09 01:50:50;;;;;;;4.57;0.70;;;22.10;99.90;;;;;;5021276;28;20304;-82
2022/12/09 01:53:25;;;;;;;4.63;0.90;;;22.20;99.90;;;;;;5063570;28;20566;-88
2022/12/09 01:55:59;;;;;;;2.63;0.80;;;22.10;99.90;;;;;;5078559;28;20568;-75
2022/12/09 01:58:30;;;;;;;2.97;0.77;;;22.10;99.90;;;;;;5085185;28;21965;-83
2022/12/09 02:01:00;;;;;;;3.30;0.70;;;22.00;99.90;;;;;;5079087;28;20199;-83
2022/12/09 02:03:33;;;;;;;1.83;0.60;;;22.00;99.90;;;;;;5080834;28;20193;-79
2022/12/09 02:06:03;;;;;;;4.82;0.88;;;21.80;99.90;;;;;;5085179;28;20214;-79
2022/12/09 02:08:36;;;;;;;3.42;0.82;;;21.60;99.90;;;;;;5081569;28;20229;-77
2022/12/09 02:11:13;;;;;;;4.80;0.70;;;21.40;99.90;;;;;;5085640;28;20215;-83
2022/12/09 02:13:50;;;;;;;2.38;0.68;;;21.50;99.90;;;;;;5086590;28;20202;-85
2022/12/09 02:16:25;;;;;;;2.78;0.70;;;21.80;99.90;;;;;;5083159;28;20196;-83
2022/12/09 02:19:02;;;;;;;3.47;0.77;;;22.00;99.90;;;;;;5084482;28;20188;-83
2022/12/09 02:21:38;;;;;;;3.72;0.80;;;22.20;99.90;;;;;;5084190;28;20560;-84
2022/12/09 02:24:18;;;;;;;4.55;0.80;;;22.20;99.90;;;;;;5083680;28;20191;-86
2022/12/09 02:26:57;;;;;;;4.22;0.80;;;22.10;99.90;;;;;;5087758;28;20270;-83
2022/12/09 02:30:14;;;;;;;6.75;0.98;;;22.10;99.90;;;;;;5084567;28;20216;-84
2022/12/09 02:33:28;;;;;;;4.43;0.95;;;22.00;99.90;;;;;;5012691;28;20198;-82
2022/12/09 02:36:04;;;;;;;3.25;0.82;;;21.70;99.90;;;;;;5074672;28;20232;-83
2022/12/09 02:38:37;;;;;;;4.10;0.80;;;21.70;99.90;;;;;;5087338;28;20195;-83
2022/12/09 02:41:14;;;;;;;4.43;1.10;;;21.70;99.90;;;;;;5085027;28;20279;-86
2022/12/09 02:43:50;;;;;;;4.38;0.77;;;21.90;99.90;;;;;;5083615;28;20218;-80
2022/12/09 02:46:23;;;;;;;4.55;0.70;;;21.90;99.90;;;;;;5086839;28;20220;-86
2022/12/09 02:48:57;;;;;;;2.83;0.80;;;21.80;99.90;;;;;;5087175;28;20212;-90
2022/12/09 02:51:35;;;;;;;2.85;0.80;;;21.60;99.90;;;;;;5087897;28;20208;-84
2022/12/09 02:54:14;;;;;;;3.63;0.90;;;21.50;99.90;;;;;;5079824;28;20200;-85
2022/12/09 02:56:51;;;;;;;2.38;0.90;;;21.30;99.90;;;;;;5089425;28;20195;-84
2022/12/09 02:59:23;;;;;;;3.70;0.90;;;21.20;99.90;;;;;;5087392;28;20559;-89
2022/12/09 03:02:04;;;;;;;2.88;0.68;;;21.30;99.90;;;;;;5088178;28;20673;-77
2022/12/09 03:04:35;;;;;;;4.82;0.80;;;21.20;99.90;;;;;;5089584;28;20283;-82
2022/12/09 03:07:17;;;;;;;2.65;0.60;;;21.20;99.90;;;;;;5085218;28;20215;-85
2022/12/09 03:09:54;;;;;;;2.80;0.63;;;21.20;99.90;;;;;;5085336;28;20208;-82
2022/12/09 03:12:27;;;;;;;3.60;0.60;;;21.00;99.90;;;;;;5085673;28;20200;-86
2022/12/09 03:14:59;;;;;;;2.55;0.80;;;20.90;99.90;;;;;;5086183;28;20276;-86
2022/12/09 03:17:34;;;;;;;4.97;0.93;;;21.00;99.90;;;;;;5085228;28;20193;-84
2022/12/09 03:20:10;;;;;;;3.17;0.77;;;21.00;99.90;;;;;;5084152;28;20567;-86
2022/12/09 03:22:46;;;;;;;3.63;0.65;;;21.00;99.90;;;;;;5085121;28;20195;-79
2022/12/09 03:25:20;;;;;;;5.38;0.88;;;21.00;99.90;;;;;;5084507;28;20188;-84
2022/12/09 03:27:57;;;;;;;3.40;0.80;;;20.80;99.90;;;;;;5082985;28;20722;-86
2022/12/09 03:30:27;;;;;;;5.90;1.00;;;20.70;99.90;;;;;;5086302;28;20200;-85
2022/12/09 03:32:59;;;;;;;2.33;0.60;;;20.60;99.90;;;;;;5078121;28;20189;-81
2022/12/09 03:35:35;;;;;;;2.17;0.80;;;20.70;99.90;;;;;;5082684;28;20227;-79
2022/12/09 03:38:11;;;;;;;4.38;0.80;;;20.70;99.90;;;;;;5084594;28;20204;-82
2022/12/09 03:40:43;;;;;;;2.92;1.08;;;20.60;99.90;;;;;;5085213;28;20200;-85
2022/12/09 03:43:17;;;;;;;3.53;1.02;;;20.60;99.90;;;;;;5083818;28;20204;-87
2022/12/09 03:45:48;;;;;;;4.70;0.90;;;20.70;99.90;;;;;;5086409;28;20185;-80
2022/12/09 03:48:19;;;;;;;5.20;0.90;;;20.70;99.90;;;;;;5085716;28;20192;-82
2022/12/09 03:50:55;;;;;;;2.65;0.80;;;20.70;99.90;;;;;;5083921;28;20201;-83
2022/12/09 03:53:34;;;;;;;1.75;0.73;;;20.60;99.90;;;;;;5083504;28;20203;-85
2022/12/09 03:56:09;;;;;;;5.88;1.02;;;20.50;99.90;;;;;;5082908;28;20242;-87
2022/12/09 03:58:45;;;;;;;2.78;0.90;;;20.40;99.90;;;;;;5082689;28;20562;-79
2022/12/09 04:01:19;;;;;;;4.88;1.15;;;20.30;99.90;;;;;;5082798;28;20735;-83
2022/12/09 04:03:53;;;;;;;6.25;3.05;;;20.30;99.90;;;;;;5081274;28;20639;-86
2022/12/09 04:06:24;;;;;;;2.78;1.00;;;20.30;99.90;;;;;;5084081;28;20655;-90
2022/12/09 04:08:57;;;;;;;4.57;0.85;;;20.40;99.90;;;;;;5084605;28;20571;-82
2022/12/09 04:11:27;;;;;;;2.83;0.70;;;20.50;99.90;;;;;;5083842;28;20199;-86
2022/12/09 04:13:58;;;;;;;4.70;0.80;;;20.60;99.90;;;;;;5086449;28;20187;-90
2022/12/09 04:16:29;;;;;;;3.40;0.90;;;20.60;99.90;;;;;;5082379;28;20197;-83
2022/12/09 04:19:00;;;;;;;4.93;0.98;;;20.50;99.90;;;;;;5084695;28;20185;-81
2022/12/09 04:21:31;;;;;;;1.83;0.55;;;20.50;99.90;;;;;;5084452;28;20228;-89
2022/12/09 04:24:03;;;;;;;8.35;0.95;;;20.50;99.90;;;;;;5080944;28;20189;-79
2022/12/09 04:26:34;;;;;;;2.42;0.68;;;20.70;99.90;;;;;;5085907;28;20199;-85
2022/12/09 04:29:05;;;;;;;3.35;1.70;;;20.60;99.90;;;;;;5083925;28;20211;-85
2022/12/09 04:31:35;;;;;;;2.22;0.80;;;20.50;99.90;;;;;;5082313;28;20197;-89
2022/12/09 04:34:07;;;;;;;4.40;0.80;;;20.50;99.90;;;;;;5083233;28;20199;-89
2022/12/09 04:36:37;;;;;;;5.28;0.65;;;20.50;99.90;;;;;;5083481;28;20603;-85
2022/12/09 04:39:10;;;;;;;3.08;1.10;;;20.40;99.90;;;;;;5084322;28;20208;-81
2022/12/09 04:41:41;;;;;;;3.40;0.82;;;20.40;99.90;;;;;;5083930;28;20287;-85
2022/12/09 04:44:12;;;;;;;3.40;0.82;;;20.40;99.90;;;;;;5084309;28;20203;-84
2022/12/09 04:46:43;;;;;;;3.90;0.80;;;20.50;99.90;;;;;;5081099;28;20204;-81
2022/12/09 04:49:15;;;;;;;2.55;0.57;;;20.50;99.90;;;;;;5082158;28;20219;-87
2022/12/09 04:51:45;;;;;;;4.43;0.80;;;20.30;99.90;;;;;;5086094;28;20196;-83
2022/12/09 04:54:18;;;;;;;3.25;0.68;;;20.30;99.90;;;;;;5083432;28;20653;-85
2022/12/09 04:56:50;;;;;;;5.00;0.70;;;20.30;99.90;;;;;;5086483;28;20196;-86
2022/12/09 04:59:21;;;;;;;2.38;0.63;;;20.30;99.90;;;;;;5084701;28;20201;-82
2022/12/09 05:01:52;;;;;;;5.63;0.70;;;20.20;99.90;;;;;;5082970;28;20192;-83
2022/12/09 05:04:22;;;;;;;3.83;0.90;;;20.10;99.90;;;;;;5083118;28;20606;-84
2022/12/09 05:06:53;;;;;;;4.80;0.70;;;20.00;99.90;;;;;;5095459;28;20199;-84
2022/12/09 05:09:26;;;;;;;4.32;0.75;;;20.00;99.90;;;;;;5089396;28;20222;-83
2022/12/09 05:11:59;;;;;;;5.00;0.68;;;20.10;99.90;;;;;;5082000;28;20616;-84
2022/12/09 05:14:30;;;;;;;2.75;0.70;;;20.10;99.90;;;;;;5086769;28;20197;-90
2022/12/09 05:17:01;;;;;;;5.30;0.70;;;20.00;99.90;;;;;;5084524;28;20205;-91
2022/12/09 05:19:32;;;;;;;3.20;0.60;;;20.00;99.90;;;;;;5082549;28;20203;-82
2022/12/09 05:22:02;;;;;;;3.30;0.60;;;20.10;99.90;;;;;;5082242;28;20188;-82
2022/12/09 05:24:35;;;;;;;0.88;0.57;;;20.00;99.90;;;;;;5085852;28;20192;-83
2022/12/09 05:27:09;;;;;;;4.35;0.80;;;19.90;99.90;;;;;;5082878;28;20184;-84
2022/12/09 05:29:39;;;;;;;3.40;0.63;;;19.80;99.90;;;;;;5082826;28;20212;-82
2022/12/09 05:32:10;;;;;;;1.85;0.70;;;19.80;99.90;;;;;;5085768;28;20228;-87
2022/12/09 05:34:41;;;;;;;2.55;0.80;;;19.90;99.90;;;;;;5083812;28;20199;-78
2022/12/09 05:37:16;;;;;;;2.75;0.82;;;20.10;99.90;;;;;;5081752;28;20259;-83
2022/12/09 05:39:49;;;;;;;3.50;0.88;;;20.10;99.90;;;;;;5084015;28;20219;-83
2022/12/09 05:42:20;;;;;;;4.05;0.70;;;20.20;99.90;;;;;;5084102;28;20204;-77
2022/12/09 05:44:51;;;;;;;2.35;0.70;;;20.30;99.90;;;;;;5085489;28;20204;-84
2022/12/09 05:47:21;;;;;;;4.43;0.70;;;20.30;99.90;;;;;;5082231;28;20192;-84
2022/12/09 05:49:54;;;;;;;3.95;0.70;;;20.30;99.90;;;;;;5083110;28;20579;-82
2022/12/09 05:52:25;;;;;;;2.60;0.80;;;20.20;99.90;;;;;;5084392;28;20202;-84
2022/12/09 05:54:57;;;;;;;2.38;0.70;;;20.20;99.90;;;;;;5084044;28;20192;-81
2022/12/09 05:57:29;;;;;;;8.45;0.93;;;20.20;99.90;;;;;;5083063;28;20204;-85
2022/12/09 06:00:00;;;;;;;2.72;0.70;;;20.30;99.90;;;;;;5082321;28;20842;-87
2022/12/09 06:02:31;;;;;;;4.40;0.70;;;20.30;99.90;;;;;;5082297;28;20667;-83
2022/12/09 06:05:02;;;;;;;5.43;0.90;;;20.30;99.90;;;;;;5078173;28;20207;-82
2022/12/09 06:07:34;;;;;;;2.85;0.50;;;20.20;99.90;;;;;;5083126;28;20192;-84
2022/12/09 06:10:07;;;;;;;2.90;0.60;;;20.10;99.90;;;;;;5084024;28;20612;-83
2022/12/09 06:12:38;;;;;;;2.85;0.80;;;20.00;99.90;;;;;;5081649;28;20198;-83
2022/12/09 06:15:09;;;;;;;3.03;0.60;;;19.90;99.90;;;;;;5079640;28;20192;-82
2022/12/09 06:17:41;;;;;;;3.58;0.90;;;19.90;99.90;;;;;;5081998;28;20581;-86
2022/12/09 06:20:12;;;;;;;3.47;0.70;;;19.90;99.90;;;;;;5077593;28;20196;-77
2022/12/09 06:22:42;;;;;;;4.03;0.50;;;19.80;99.90;;;;;;5083419;28;20207;-82
2022/12/09 06:25:16;;;;;;;4.25;0.80;;;19.70;99.90;;;;;;5081829;28;20207;-82
2022/12/09 06:27:47;;;;;;;4.85;0.73;;;19.60;99.90;;;;;;5080800;28;20247;-83
2022/12/09 06:30:19;;;;;;;3.10;0.75;;;19.60;99.90;;;;;;5080761;28;20213;-82
2022/12/09 06:32:49;;;;;;;3.50;1.00;;;19.70;99.90;;;;;;5080649;28;20189;-82
2022/12/09 06:35:20;;;;;;;4.35;0.90;;;19.90;99.90;;;;;;5079464;28;20707;-81
2022/12/09 06:37:54;;;;;;;2.25;0.70;;;19.90;99.90;;;;;;5078788;28;20245;-81
2022/12/09 06:40:26;;;;;;;2.00;0.60;;;19.90;99.90;;;;;;5081854;28;20227;-84
2022/12/09 06:42:58;;;;;;;5.45;0.60;;;19.80;99.90;;;;;;5080632;28;20196;-84
2022/12/09 06:45:28;;;;;;;3.75;0.70;;;19.70;99.90;;;;;;5086071;28;20231;-82
2022/12/09 06:47:59;;;;;;;2.10;0.80;;;19.50;99.90;;;;;;5081440;28;20193;-89
2022/12/09 06:50:30;;;;;;;4.93;0.80;;;19.40;99.90;;;;;;5080585;28;20298;-86
2022/12/09 06:53:01;;;;;;;5.50;0.90;;;19.30;99.90;;;;;;5079801;28;20195;-85
2022/12/09 06:55:33;;;;;;;3.83;0.77;;;19.30;99.90;;;;;;5081979;28;20204;-83
2022/12/09 06:58:04;;;;;;;1.88;0.60;;;19.30;99.90;;;;;;5081512;28;20182;-84
2022/12/09 07:00:35;;;;;;;2.97;0.70;;;19.30;99.90;;;;;;5080337;28;20189;-84
2022/12/09 07:03:06;;;;;;;3.72;0.77;;;19.30;99.90;;;;;;5089081;28;20244;-88
2022/12/09 07:05:37;;;;;;;5.90;0.80;;;19.30;99.90;;;;;;5092156;28;20206;-84
2022/12/09 07:08:08;;;;;;;2.35;0.50;;;19.20;99.90;;;;;;5091078;28;20199;-84
2022/12/09 07:10:44;;;;;;;4.78;0.85;;;19.10;99.90;;;;;;5093700;28;20212;-83
2022/12/09 07:13:15;;;;;;;2.85;0.70;;;19.00;99.90;;;;;;5089499;28;20643;-82
2022/12/09 07:15:45;;;;;;;2.47;0.68;;;18.90;99.90;;;;;;5093287;28;20206;-82
2022/12/09 07:18:17;;;;;;;4.28;0.90;;;18.80;99.90;;;;;;5093007;28;20266;-85
2022/12/09 07:20:48;;;;;;;4.55;0.68;;;18.80;99.90;;;;;;5096199;28;20248;-82
2022/12/09 07:23:19;;;;;;;4.13;0.77;;;18.70;99.90;;;;;;5092812;28;20199;-83
2022/12/09 07:26:01;;;;;;;5.68;0.90;;;18.70;99.90;;;;;;5095644;28;20200;-85
2022/12/09 07:28:31;;;;;;;4.35;0.90;;;18.70;99.90;;;;;;5087497;28;20254;-85
2022/12/09 07:31:02;;;;;;;3.20;0.93;;;18.80;99.90;;;;;;5076467;28;20230;-84
2022/12/09 07:33:33;;;;;;;2.90;0.80;;;18.80;99.90;;;;;;5079492;28;20572;-84
2022/12/09 07:36:04;;;;;;;3.20;0.70;;;18.70;99.90;;;;;;5084658;28;20778;-84
2022/12/09 07:38:35;;;;;;;3.30;1.00;;;18.70;99.90;;;;;;5091921;28;20188;-85
2022/12/09 07:41:16;;;;;;;2.47;0.70;;;18.70;99.90;;;;;;5090463;28;20557;-81
2022/12/09 07:43:48;;;;;;;2.78;0.80;;;18.60;99.90;;;;;;5076892;28;20721;-86
2022/12/09 07:46:20;;;;;;;2.15;0.60;;;18.50;99.90;;;;;;5095326;28;20631;-85
2022/12/09 07:48:51;;;;;;;2.15;1.05;;;18.60;99.90;;;;;;5090026;28;20572;-86
2022/12/09 07:51:23;;;;;;;3.25;0.63;;;18.60;99.90;;;;;;5075664;28;20562;-89
2022/12/09 07:53:53;;;;;;;4.07;0.60;;;18.60;99.90;;;;;;5088522;28;20188;-88
2022/12/09 07:56:27;;;;;;;3.92;0.93;;;18.60;99.90;;;;;;5095638;28;20188;-81
2022/12/09 07:58:58;;;;;;;2.50;0.82;;;18.60;99.90;;;;;;5095938;28;20218;-87
2022/12/09 08:01:31;;;;;;;3.72;0.68;;;18.50;99.90;;;;;;5095721;28;20221;-87
2022/12/09 08:04:02;;;;;;;7.03;1.02;;;18.40;99.90;;;;;;5095901;28;20200;-85
2022/12/09 08:06:33;;;;;;;2.15;0.77;;;18.30;99.90;;;;;;5095778;28;20196;-84
2022/12/09 08:09:05;;;;;;;4.32;0.75;;;18.30;99.90;;;;;;5096188;28;20192;-88
2022/12/09 08:11:37;;;;;;;6.13;0.85;;;18.30;99.90;;;;;;5095387;28;20226;-83
2022/12/09 08:14:10;;;;;;;4.38;0.90;;;18.30;99.90;;;;;;5095516;28;20197;-85
2022/12/09 08:16:41;;;;;;;3.63;0.80;;;18.40;99.90;;;;;;5095028;28;20563;-85
2022/12/09 08:19:11;;;;;;;6.32;0.90;;;18.40;99.90;;;;;;5094872;28;20275;-83
2022/12/09 08:21:42;;;;;;;6.13;0.80;;;18.40;99.90;;;;;;5094494;28;20196;-86
2022/12/09 08:24:14;;;;;;;3.45;0.80;;;18.30;99.90;;;;;;5096067;28;20192;-80
2022/12/09 08:26:46;;;;;;;3.63;0.77;;;18.20;99.90;;;;;;5095001;28;20550;-85
2022/12/09 08:29:17;;;;;;;1.60;0.60;;;18.20;99.90;;;;;;5094133;28;20196;-81
2022/12/09 08:31:48;;;;;;;2.88;0.80;;;18.10;99.90;;;;;;5088054;28;20217;-83
2022/12/09 08:34:19;;;;;;;3.30;0.63;;;18.10;99.90;;;;;;5076918;28;20193;-80
2022/12/09 08:36:50;;;;;;;2.83;0.60;;;18.00;99.90;;;;;;5085577;28;20228;-83
2022/12/09 08:39:20;;;;;;;5.30;0.90;;;18.00;99.90;;;;;;5074924;28;20289;-82
2022/12/09 08:41:53;;;;;;;4.55;0.88;;;18.00;99.90;;;;;;5090204;28;20205;-85
2022/12/09 08:44:24;;;;;;;3.63;1.00;;;18.00;99.90;;;;;;5094760;28;20184;-84
2022/12/09 08:46:55;;;;;;;2.45;0.88;;;17.90;99.90;;;;;;5094864;28;20188;-84
2022/12/09 08:49:26;;;;;;;5.47;0.77;;;17.90;99.90;;;;;;5094652;28;20276;-86
2022/12/09 08:51:58;;;;;;;2.70;0.70;;;17.90;99.90;;;;;;5094585;28;20216;-87
2022/12/09 08:54:28;;;;;;;4.80;0.80;;;17.80;99.90;;;;;;5094875;28;20196;-85
2022/12/09 08:57:01;;;;;;;3.75;1.00;;;17.80;99.90;;;;;;5094372;28;20218;-85
2022/12/09 08:59:32;;;;;;;2.20;0.70;;;17.80;99.90;;;;;;5094225;28;20198;-85
2022/12/09 09:02:03;;;;;;;1.65;0.80;;;17.80;99.90;;;;;;5094408;28;20218;-85
2022/12/09 09:04:34;;;;;;;4.75;1.08;;;17.80;99.90;;;;;;5094363;28;20234;-85
2022/12/09 09:07:05;;;;;;;3.65;1.02;;;17.80;99.90;;;;;;5094319;28;20203;-81
2022/12/09 09:09:36;;;;;;;3.92;0.80;;;17.80;99.90;;;;;;5094368;28;20194;-82
2022/12/09 09:12:09;;;;;;;6.38;0.90;;;17.70;99.90;;;;;;5094465;28;20220;-83
2022/12/09 09:14:39;;;;;;;3.92;1.00;;;17.70;99.90;;;;;;5094088;28;20218;-87
2022/12/09 09:17:10;;;;;;;4.05;0.80;;;17.70;99.90;;;;;;5080907;28;20193;-85
2022/12/09 09:19:41;;;;;;;6.13;1.15;;;17.70;99.90;;;;;;5094163;28;20195;-81
2022/12/09 09:22:12;;;;;;;3.65;0.90;;;17.70;99.90;;;;;;5084406;28;20217;-86
2022/12/09 09:24:43;;;;;;;3.78;0.80;;;17.70;99.90;;;;;;5073861;28;20185;-89
2022/12/09 09:27:15;;;;;;;3.80;0.73;;;17.70;99.90;;;;;;5073828;28;20672;-85
2022/12/09 09:29:46;;;;;;;4.30;0.90;;;17.70;99.90;;;;;;5073459;28;20627;-85
2022/12/09 09:32:17;;;;;;;5.07;1.38;;;17.70;99.90;;;;;;5073575;28;20251;-84
2022/12/09 09:34:49;;;;;;;11.13;1.30;;;17.70;99.90;;;;;;5084472;28;20754;-83
2022/12/09 09:37:22;;;;;;;4.57;0.90;;;17.70;99.90;;;;;;5083829;28;20220;-84
2022/12/09 09:39:53;;;;;;;6.13;1.00;;;17.70;99.90;;;;;;5093748;28;20196;-82
2022/12/09 09:42:29;;;;;;;3.28;0.80;;;17.70;99.90;;;;;;5075083;28;20252;-87
2022/12/09 09:45:01;;;;;;;5.45;1.17;;;17.70;99.90;;;;;;5073478;28;20193;-90
2022/12/09 09:47:36;;;;;;;5.93;0.98;;;17.70;99.90;;;;;;5073470;28;20185;-88
2022/12/09 09:50:18;;;;;;;2.35;0.65;;;17.70;99.90;;;;;;5073381;28;20195;-82
2022/12/09 09:52:49;;;;;;;3.25;0.70;;;17.70;99.90;;;;;;5076475;28;20647;-84
2022/12/09 09:55:22;;;;;;;2.67;0.82;;;17.70;99.90;;;;;;5084256;28;20200;-82
2022/12/09 09:58:06;;;;;;;1.88;0.90;;;17.70;99.90;;;;;;5093708;28;20192;-83
2022/12/09 10:00:43;;;;;;;4.47;1.10;;;17.70;99.90;;;;;;5093591;28;20192;-81
2022/12/09 10:03:17;;;;;;;3.80;0.70;;;17.70;99.90;;;;;;5093568;28;20596;-84
2022/12/09 10:05:54;;;;;;;4.47;1.25;;;17.70;99.90;;;;;;5093575;28;20583;-87
2022/12/09 10:08:33;;;;;;;2.65;0.98;;;17.70;99.90;;;;;;5093487;28;20224;-77
2022/12/09 10:11:13;;;;;;;4.10;0.82;;;17.70;99.90;;;;;;5093378;28;20215;-85
2022/12/09 10:13:55;;;;;;;6.32;0.88;;;17.70;99.90;;;;;;5093378;28;20192;-84
2022/12/09 10:16:31;;;;;;;7.55;0.88;;;17.70;99.90;;;;;;5093499;28;20224;-82
2022/12/09 10:19:10;;;;;;;5.15;1.05;;;17.80;99.90;;;;;;5093779;28;20194;-82
2022/12/09 10:21:44;;;;;;;7.28;1.10;;;17.80;99.90;;;;;;5093587;28;20195;-86
2022/12/09 10:24:23;;;;;;;10.48;1.13;;;17.80;99.90;;;;;;5085532;28;20220;-83
2022/12/09 10:27:06;;;;;;;6.68;1.17;;;17.80;99.90;;;;;;5072987;28;20291;-81
2022/12/09 10:30:01;;;;;;;5.47;0.80;;;17.80;99.90;;;;;;5087793;28;20193;-80
2022/12/09 10:32:34;;;;;;;5.07;0.88;;;17.80;99.90;;;;;;5090891;28;20220;-84
2022/12/09 10:35:14;;;;;;;6.70;0.90;;;17.80;99.90;;;;;;5078679;28;20235;-81
2022/12/09 10:37:45;;;;;;;4.20;0.80;;;17.80;99.90;;;;;;5078677;28;20232;-80
2022/12/09 10:40:25;;;;;;;7.95;1.08;;;17.80;99.90;;;;;;5074448;28;20560;-83
2022/12/09 10:45:53;;;;;;;3.85;0.73;;;17.70;99.90;;;;;;5091715;28;20556;-83
2022/12/09 10:48:30;;;;;;;6.18;0.90;;;17.70;99.90;;;;;;5090116;28;20188;-82
2022/12/09 10:51:03;;;;;;;7.13;0.90;;;17.70;99.90;;;;;;5083825;28;20213;-82
2022/12/09 10:53:35;;;;;;;4.68;0.80;;;17.70;99.90;;;;;;5085809;28;20193;-85
2022/12/09 10:56:07;;;;;;;4.85;1.08;;;17.70;99.90;;;;;;5093306;28;20188;-84
2022/12/09 10:58:38;;;;;;;4.82;0.80;;;17.70;99.90;;;;;;5086956;28;20192;-82
2022/12/09 11:01:14;;;;;;;8.32;1.30;;;17.70;99.90;;;;;;5085557;28;20189;-84
2022/12/09 11:03:52;;;;;;;3.85;0.80;;;17.70;99.90;;;;;;5084145;28;20184;-83
2022/12/09 11:06:28;;;;;;;5.25;1.20;;;17.70;99.90;;;;;;5081162;28;20181;-85
2022/12/09 11:09:00;;;;;;;5.53;1.02;;;17.70;99.90;;;;;;5085233;28;20548;-82
2022/12/09 11:11:47;;;;;;;2.92;0.75;;;17.80;99.90;;;;;;5093697;28;20246;-84
2022/12/09 11:14:25;;;;;;;5.80;1.10;;;17.80;99.90;;;;;;5086702;28;20335;-88
2022/12/09 11:17:02;;;;;;;5.22;0.90;;;17.80;99.90;;;;;;5084349;28;20184;-88
2022/12/09 11:19:35;;;;;;;7.47;1.15;;;17.80;99.90;;;;;;5087772;28;20530;-86
2022/12/09 11:22:34;;;;;;;2.30;0.73;;;17.70;99.90;;;;;;5085034;28;20230;-90
2022/12/09 11:25:23;;;;;;;7.20;1.30;;;17.70;99.90;;;;;;5080405;28;20184;-87
2022/12/09 11:27:56;;;;;;;5.75;1.00;;;17.70;99.90;;;;;;5083966;28;20192;-89
2022/12/09 11:30:29;;;;;;;6.25;1.08;;;17.80;99.90;;;;;;5081166;28;20185;-88
2022/12/09 11:33:09;;;;;;;6.07;1.10;;;17.70;99.90;;;;;;5080918;28;20194;-89
2022/12/09 11:35:53;;;;;;;6.72;0.80;;;17.70;99.90;;;;;;5082188;28;20709;-86
2022/12/09 11:38:35;;;;;;;5.75;1.00;;;17.70;99.90;;;;;;5086654;28;20191;-86
2022/12/09 11:42:12;;;;;;;6.25;0.93;;;17.70;99.90;;;;;;5084878;28;20184;-86
2022/12/09 11:44:26;;;;;;;3.47;0.88;;;17.70;99.90;;;;;;5084389;28;20200;-84
2022/12/09 11:47:03;;;;;;;5.15;0.95;;;17.70;99.90;;;;;;5081316;28;20243;-86
2022/12/09 11:49:45;;;;;;;7.95;1.10;;;17.70;99.90;;;;;;5084311;28;20188;-87
2022/12/09 11:52:29;;;;;;;4.68;0.80;;;17.70;99.90;;;;;;5084174;28;20208;-87
2022/12/09 11:55:14;;;;;;;4.63;0.95;;;17.70;99.90;;;;;;5083119;28;20189;-87
2022/12/09 11:57:51;;;;;;;7.50;1.00;;;17.70;99.90;;;;;;5085211;28;20188;-87
2022/12/09 12:00:24;;;;;;;6.10;1.30;;;17.70;99.90;;;;;;5085947;28;20233;-86
2022/12/09 12:03:04;;;;;;;5.90;1.27;;;17.70;99.90;;;;;;5086177;28;20635;-86
2022/12/09 12:05:42;;;;;;;5.30;1.17;;;17.60;99.90;;;;;;5083924;28;20196;-87
2022/12/09 12:08:22;;;;;;;9.30;1.20;;;17.60;99.90;;;;;;5086990;28;20268;-86
2022/12/09 12:10:59;;;;;;;7.05;1.30;;;17.60;99.90;;;;;;5083122;28;20215;-86
2022/12/09 12:13:36;;;;;;;3.45;0.73;;;17.60;99.90;;;;;;5085506;28;20267;-88
2022/12/09 12:16:12;;;;;;;7.35;1.00;;;17.60;99.90;;;;;;5082434;28;20184;-86
2022/12/09 12:18:46;;;;;;;5.57;1.08;;;17.60;99.90;;;;;;5083743;28;20211;-88
2022/12/09 12:21:40;;;;;;;5.18;0.90;;;17.60;99.90;;;;;;5085243;28;20639;-90
2022/12/09 12:24:37;;;;;;;6.65;1.05;;;17.60;99.90;;;;;;5083934;28;20572;-85
2022/12/09 12:27:22;;;;;;;6.30;0.93;;;17.60;99.90;;;;;;5078725;28;20203;-88
2022/12/09 12:30:00;;;;;;;7.28;1.27;;;17.60;99.90;;;;;;5082360;28;20188;-87
2022/12/09 12:32:46;;;;;;;5.05;0.95;;;17.60;99.90;;;;;;5085072;28;20215;-85
2022/12/09 12:35:37;;;;;;;5.45;1.10;;;17.60;99.90;;;;;;5083714;28;20212;-87
2022/12/09 12:38:20;;;;;;;6.90;0.98;;;17.60;99.90;;;;;;5083194;28;20222;-88
2022/12/09 12:41:00;;;;;;;5.90;1.00;;;17.60;99.90;;;;;;5085136;28;20191;-85
2022/12/09 12:46:48;;;;;;;8.18;1.10;;;17.60;99.90;;;;;;5081944;28;20196;-78
2022/12/09 12:49:35;;;;;;;5.82;1.00;;;17.60;99.90;;;;;;5082466;28;20208;-87
2022/12/09 12:52:18;;;;;;;7.75;1.17;;;17.60;99.90;;;;;;5084208;28;20208;-87
2022/12/09 12:55:01;;;;;;;6.60;1.25;;;17.60;99.90;;;;;;5086429;28;20185;-84
2022/12/09 12:57:38;;;;;;;6.32;1.00;;;17.50;99.90;;;;;;5082954;28;20188;-86
2022/12/09 13:00:15;;;;;;;6.53;0.80;;;17.50;99.90;;;;;;5083011;28;20249;-86
2022/12/09 13:02:50;;;;;;;3.00;0.90;;;17.50;99.90;;;;;;5083105;28;20636;-84
2022/12/09 13:05:25;;;;;;;7.00;1.00;;;17.50;99.90;;;;;;5080142;28;20193;-89
2022/12/09 13:07:59;;;;;;;4.75;1.13;;;17.50;99.90;;;;;;5081841;28;20210;-88
2022/12/09 13:10:38;;;;;;;8.80;1.10;;;17.50;99.90;;;;;;5083811;28;20671;-84
2022/12/09 13:13:21;;;;;;;6.25;1.08;;;17.50;99.90;;;;;;5082487;28;20583;-83
2022/12/09 13:15:54;;;;;;;6.70;1.10;;;17.50;99.90;;;;;;5080033;28;20231;-84
2022/12/09 13:18:30;;;;;;;6.60;0.98;;;17.50;99.90;;;;;;5085095;28;20208;-89
2022/12/09 13:21:02;;;;;;;6.53;1.05;;;17.50;99.90;;;;;;5082810;28;20189;-89
2022/12/09 13:23:46;;;;;;;5.93;0.90;;;17.50;99.90;;;;;;5085603;28;20192;-86
2022/12/09 13:26:28;;;;;;;4.85;0.90;;;17.40;99.90;;;;;;5077951;28;20666;-89
2022/12/09 13:29:05;;;;;;;5.00;0.98;;;17.40;99.90;;;;;;5082524;28;20636;-89
2022/12/09 13:31:38;;;;;;;4.70;0.90;;;17.40;99.90;;;;;;5085180;28;20214;-86
2022/12/09 13:34:22;;;;;;;6.90;0.98;;;17.40;99.90;;;;;;5081682;28;20254;-85